Time;durP1;ratioP1;P1;durP2;ratioP2;P2;SDS_P1;SDS_P2;PMS_P1;PMS_P2;Temp;Humidity;BMP_temperature;BMP_pressure;BME280_temperature;BME280_humidity;BME280_pressure;Samples;Min_cycle;Max_cycle;Signal;HPM_P1;HPM_P2
2021/04/25 00:02:09;;;;;;;4.57;2.58;;;20.50;59.40;;;;;;4975214;28;20031;-67
2021/04/25 00:04:37;;;;;;;3.88;1.88;;;20.60;60.40;;;;;;4974577;28;20097;-68
2021/04/25 00:07:06;;;;;;;3.70;1.98;;;20.70;60.40;;;;;;4976199;28;20071;-67
2021/04/25 00:09:34;;;;;;;4.38;1.90;;;20.80;60.10;;;;;;4976492;28;20035;-65
2021/04/25 00:12:02;;;;;;;2.55;1.48;;;20.90;59.90;;;;;;4975508;28;20206;-67
2021/04/25 00:14:29;;;;;;;2.40;1.63;;;20.90;59.60;;;;;;4976157;28;20105;-66
2021/04/25 00:16:57;;;;;;;3.83;1.85;;;21.00;59.20;;;;;;4975568;28;20370;-65
2021/04/25 00:19:24;;;;;;;4.57;2.22;;;21.10;59.00;;;;;;4974876;28;20014;-66
2021/04/25 00:21:52;;;;;;;4.72;1.40;;;21.10;58.20;;;;;;4958092;28;20061;-66
2021/04/25 00:24:19;;;;;;;2.38;1.65;;;21.30;59.20;;;;;;4975623;28;20019;-64
2021/04/25 00:26:47;;;;;;;3.65;2.20;;;21.30;58.70;;;;;;4974516;28;20038;-66
2021/04/25 00:29:14;;;;;;;5.07;2.53;;;21.40;58.50;;;;;;4973728;28;20050;-66
2021/04/25 00:31:41;;;;;;;4.13;1.77;;;21.50;58.80;;;;;;4974840;28;20085;-67
2021/04/25 00:34:09;;;;;;;2.63;1.80;;;21.50;58.60;;;;;;4975785;28;20489;-64
2021/04/25 00:36:36;;;;;;;5.32;1.98;;;21.60;58.50;;;;;;4974960;28;20066;-65
2021/04/25 00:39:05;;;;;;;2.38;1.45;;;21.60;58.60;;;;;;4975060;28;20390;-66
2021/04/25 00:41:33;;;;;;;4.57;2.03;;;21.70;58.50;;;;;;4973330;28;20053;-65
2021/04/25 00:44:00;;;;;;;5.53;2.28;;;21.70;58.50;;;;;;4975301;28;20504;-64
2021/04/25 00:46:27;;;;;;;5.13;1.80;;;21.70;59.20;;;;;;4975730;28;20093;-65
2021/04/25 00:48:58;;;;;;;3.88;1.95;;;21.80;58.40;;;;;;4976009;28;20031;-67
2021/04/25 00:51:25;;;;;;;4.70;2.25;;;21.90;58.10;;;;;;4976370;28;20541;-66
2021/04/25 00:53:53;;;;;;;4.22;1.83;;;22.00;58.80;;;;;;4975838;28;20025;-66
2021/04/25 00:56:22;;;;;;;4.45;1.88;;;22.00;58.60;;;;;;4975315;28;20027;-65
2021/04/25 00:58:51;;;;;;;3.17;1.77;;;22.10;58.30;;;;;;4974775;28;20479;-67
2021/04/25 01:01:18;;;;;;;5.00;1.75;;;22.20;57.90;;;;;;4976142;28;20363;-68
2021/04/25 01:03:45;;;;;;;5.45;1.90;;;22.20;57.60;;;;;;4975935;28;20433;-66
2021/04/25 01:06:13;;;;;;;3.35;1.60;;;22.30;57.60;;;;;;4976177;28;20083;-65
2021/04/25 01:08:40;;;;;;;1.98;1.70;;;22.40;58.00;;;;;;4975955;28;20037;-65
2021/04/25 01:11:08;;;;;;;7.03;1.27;;;22.30;57.50;;;;;;4973938;28;20125;-65
2021/04/25 01:13:35;;;;;;;4.40;2.05;;;22.50;57.30;;;;;;4976010;28;20113;-67
2021/04/25 01:16:03;;;;;;;5.15;1.63;;;22.50;57.50;;;;;;4974035;28;20585;-67
2021/04/25 01:18:30;;;;;;;1.95;1.63;;;22.50;57.90;;;;;;4974147;28;20054;-67
2021/04/25 01:21:05;;;;;;;2.35;1.50;;;22.50;56.80;;;;;;4974626;28;20039;-67
2021/04/25 01:23:33;;;;;;;2.17;1.60;;;22.30;57.00;;;;;;4974038;28;20085;-65
2021/04/25 01:26:01;;;;;;;3.03;2.00;;;22.20;57.60;;;;;;4973964;28;20022;-65
2021/04/25 01:28:28;;;;;;;2.20;1.45;;;22.20;57.60;;;;;;4973692;28;20035;-68
2021/04/25 01:30:56;;;;;;;2.83;1.73;;;22.10;57.90;;;;;;4973703;28;20446;-64
2021/04/25 01:33:28;;;;;;;3.92;1.55;;;22.00;57.90;;;;;;4975312;28;20500;-65
2021/04/25 01:35:56;;;;;;;3.33;1.50;;;21.90;58.60;;;;;;4975327;28;20030;-65
2021/04/25 01:38:23;;;;;;;2.40;1.60;;;21.90;58.50;;;;;;4975606;28;20430;-68
2021/04/25 01:40:50;;;;;;;3.05;1.73;;;21.90;58.80;;;;;;4975009;28;20038;-64
2021/04/25 01:43:18;;;;;;;5.38;1.90;;;21.70;59.20;;;;;;4979036;28;20038;-62
2021/04/25 01:45:45;;;;;;;4.07;1.88;;;21.60;59.70;;;;;;4961071;28;20375;-67
2021/04/25 01:48:14;;;;;;;4.25;1.88;;;21.70;60.50;;;;;;4979129;28;20062;-66
2021/04/25 01:50:42;;;;;;;1.88;1.23;;;21.80;59.50;;;;;;4979887;28;20055;-67
2021/04/25 01:53:10;;;;;;;15.63;1.77;;;21.80;59.20;;;;;;4979774;28;20034;-63
2021/04/25 01:55:39;;;;;;;2.83;1.65;;;21.70;59.40;;;;;;4979224;28;20103;-63
2021/04/25 01:58:08;;;;;;;1.65;1.50;;;21.60;59.90;;;;;;4979097;28;20102;-64
2021/04/25 02:00:40;;;;;;;5.75;1.52;;;21.60;60.90;;;;;;4979599;28;20494;-64
2021/04/25 02:03:12;;;;;;;8.43;2.80;;;21.70;59.70;;;;;;4980405;28;20027;-66
2021/04/25 02:05:41;;;;;;;2.95;1.70;;;21.90;59.40;;;;;;4962402;28;20084;-68
2021/04/25 02:08:10;;;;;;;2.90;1.60;;;22.00;59.60;;;;;;4979287;28;20037;-67
2021/04/25 02:10:38;;;;;;;5.25;1.60;;;22.10;59.50;;;;;;4979244;28;20038;-68
2021/04/25 02:13:08;;;;;;;2.33;1.30;;;22.30;59.30;;;;;;4979482;28;20470;-69
2021/04/25 02:15:36;;;;;;;2.13;1.35;;;22.40;59.20;;;;;;4961304;28;20035;-66
2021/04/25 02:18:04;;;;;;;10.18;1.92;;;22.50;59.10;;;;;;4978621;28;20070;-60
2021/04/25 02:20:32;;;;;;;3.67;2.22;;;23.00;58.70;;;;;;4978469;28;20027;-60
2021/04/25 02:23:00;;;;;;;6.70;1.85;;;23.30;57.70;;;;;;4978078;28;20039;-62
2021/04/25 02:25:28;;;;;;;2.83;1.45;;;23.40;55.90;;;;;;4978149;28;20389;-61
2021/04/25 02:27:56;;;;;;;6.15;1.70;;;23.50;56.20;;;;;;4977464;28;20147;-65
2021/04/25 02:30:29;;;;;;;4.40;1.55;;;23.60;56.20;;;;;;4978181;28;20030;-61
2021/04/25 02:32:58;;;;;;;7.35;1.60;;;23.40;55.20;;;;;;4978046;28;20431;-64
2021/04/25 02:35:27;;;;;;;11.35;1.85;;;23.40;55.50;;;;;;4978296;28;20086;-63
2021/04/25 02:37:56;;;;;;;4.40;2.10;;;23.20;56.70;;;;;;4960656;28;20027;-62
2021/04/25 02:40:27;;;;;;;9.73;2.25;;;23.10;57.00;;;;;;4976752;28;20023;-63
2021/04/25 02:42:57;;;;;;;6.32;2.15;;;23.00;57.70;;;;;;4978148;28;20038;-64
2021/04/25 02:45:26;;;;;;;6.55;1.55;;;23.00;57.40;;;;;;4978214;28;20023;-67
2021/04/25 02:47:57;;;;;;;10.70;2.40;;;22.90;57.40;;;;;;4978501;28;20490;-67
2021/04/25 02:50:29;;;;;;;9.52;1.98;;;22.60;59.70;;;;;;4978203;28;20501;-68
2021/04/25 02:52:57;;;;;;;6.45;2.17;;;22.50;60.20;;;;;;4977122;28;20195;-70
2021/04/25 02:55:25;;;;;;;7.00;1.70;;;22.40;60.20;;;;;;4978739;28;20496;-67
2021/04/25 02:57:53;;;;;;;7.90;2.00;;;22.40;61.00;;;;;;4978144;28;20398;-71
2021/04/25 03:00:24;;;;;;;16.73;1.70;;;22.40;61.30;;;;;;4978379;28;20037;-68
2021/04/25 03:02:52;;;;;;;7.80;1.67;;;22.40;61.90;;;;;;4977678;28;20063;-68
2021/04/25 03:05:20;;;;;;;6.70;1.70;;;22.40;62.20;;;;;;4978494;28;20107;-66
2021/04/25 03:07:47;;;;;;;3.15;1.75;;;22.30;62.90;;;;;;4977731;28;20473;-66
2021/04/25 03:10:17;;;;;;;6.03;1.70;;;22.20;63.20;;;;;;4977001;28;20038;-68
2021/04/25 03:12:47;;;;;;;5.97;2.33;;;22.20;63.40;;;;;;4977501;28;20023;-67
2021/04/25 03:15:17;;;;;;;21.45;2.40;;;22.20;63.20;;;;;;4978010;28;20026;-66
2021/04/25 03:17:44;;;;;;;5.57;2.08;;;22.20;63.60;;;;;;4977915;28;20030;-66
2021/04/25 03:20:15;;;;;;;13.23;2.42;;;22.30;64.50;;;;;;4960581;28;20033;-67
2021/04/25 03:22:43;;;;;;;11.68;1.98;;;22.30;64.60;;;;;;4967253;28;20045;-67
2021/04/25 03:25:12;;;;;;;12.05;2.63;;;22.50;63.10;;;;;;4973782;28;20150;-62
2021/04/25 03:27:39;;;;;;;5.78;2.05;;;22.20;64.70;;;;;;4974711;28;20023;-67
2021/04/25 03:30:10;;;;;;;6.15;2.03;;;22.10;64.70;;;;;;4975347;28;20050;-62
2021/04/25 03:32:37;;;;;;;19.33;3.17;;;22.10;65.20;;;;;;4971620;28;20027;-67
2021/04/25 03:35:07;;;;;;;14.90;3.35;;;22.00;65.30;;;;;;4957465;28;20034;-62
2021/04/25 03:37:35;;;;;;;9.52;3.00;;;21.80;66.10;;;;;;4974986;28;20034;-69
2021/04/25 03:40:03;;;;;;;7.18;2.00;;;21.70;66.60;;;;;;4973951;28;20022;-69
2021/04/25 03:42:31;;;;;;;7.90;1.80;;;21.60;67.00;;;;;;4970580;28;20343;-65
2021/04/25 03:44:59;;;;;;;12.65;2.60;;;21.60;67.10;;;;;;4974197;28;20366;-65
2021/04/25 03:47:26;;;;;;;4.93;2.13;;;21.50;67.50;;;;;;4974632;28;20047;-68
2021/04/25 03:49:54;;;;;;;15.25;3.92;;;21.60;67.80;;;;;;4973676;28;20090;-70
2021/04/25 03:52:21;;;;;;;8.23;2.67;;;21.60;67.20;;;;;;4972018;28;20025;-66
2021/04/25 03:54:49;;;;;;;9.15;4.47;;;21.50;67.50;;;;;;4971296;28;20050;-63
2021/04/25 03:57:16;;;;;;;8.60;4.18;;;21.50;68.40;;;;;;4972314;28;20434;-66
2021/04/25 03:59:44;;;;;;;5.85;2.97;;;21.60;68.30;;;;;;4973089;28;20074;-63
2021/04/25 04:02:11;;;;;;;10.80;5.00;;;21.50;69.20;;;;;;4970745;28;20031;-65
2021/04/25 04:04:39;;;;;;;8.68;2.38;;;21.40;68.50;;;;;;4956251;28;20038;-66
2021/04/25 04:07:07;;;;;;;12.55;3.88;;;21.40;68.90;;;;;;4956262;29;20031;-67
2021/04/25 04:09:35;;;;;;;10.45;6.00;;;21.40;69.40;;;;;;4968357;28;20027;-66
2021/04/25 04:12:03;;;;;;;10.75;6.95;;;21.40;69.00;;;;;;4975533;28;20027;-66
2021/04/25 04:14:30;;;;;;;8.38;3.22;;;21.40;69.20;;;;;;4975712;28;20062;-65
2021/04/25 04:16:58;;;;;;;5.97;4.00;;;21.30;69.40;;;;;;4975564;28;20038;-66
2021/04/25 04:19:26;;;;;;;4.93;2.13;;;21.30;69.30;;;;;;4975142;28;20082;-63
2021/04/25 04:21:53;;;;;;;19.17;17.17;;;21.30;69.30;;;;;;4974779;28;20031;-57
2021/04/25 04:24:22;;;;;;;18.27;14.63;;;21.30;69.70;;;;;;4975284;28;20062;-57
2021/04/25 04:26:49;;;;;;;12.75;8.55;;;21.50;69.20;;;;;;4976075;28;20030;-61
2021/04/25 04:29:17;;;;;;;17.05;9.70;;;21.60;68.80;;;;;;4976320;28;20106;-56
2021/04/25 04:31:45;;;;;;;17.05;10.73;;;21.70;68.40;;;;;;4975658;28;20034;-58
2021/04/25 04:34:12;;;;;;;13.23;10.65;;;21.70;68.00;;;;;;4976047;28;20027;-53
2021/04/25 04:36:40;;;;;;;24.10;16.27;;;21.70;68.00;;;;;;4976690;28;20031;-51
2021/04/25 04:39:07;;;;;;;14.13;9.13;;;21.70;68.20;;;;;;4975837;28;20044;-55
2021/04/25 04:41:35;;;;;;;12.85;9.80;;;21.90;68.60;;;;;;4968554;28;20891;-58
2021/04/25 04:44:02;;;;;;;18.08;8.73;;;22.00;69.00;;;;;;4954473;28;20019;-60
2021/04/25 04:46:30;;;;;;;16.13;9.48;;;22.00;69.60;;;;;;4973220;28;20390;-60
2021/04/25 04:48:57;;;;;;;25.52;10.43;;;22.00;69.80;;;;;;4970732;28;20046;-51
2021/04/25 04:51:25;;;;;;;11.00;8.00;;;22.00;69.60;;;;;;4973299;28;20066;-57
2021/04/25 04:53:52;;;;;;;16.92;8.77;;;22.00;69.70;;;;;;4970863;28;20480;-56
2021/04/25 04:56:20;;;;;;;15.63;9.80;;;22.10;69.80;;;;;;4973398;28;20433;-59
2021/04/25 04:58:48;;;;;;;11.73;8.10;;;22.20;69.60;;;;;;4973208;28;20457;-53
2021/04/25 05:01:15;;;;;;;11.18;8.73;;;22.10;69.60;;;;;;4970275;28;20026;-54
2021/04/25 05:03:43;;;;;;;26.23;12.90;;;22.10;69.60;;;;;;4969484;28;20081;-57
2021/04/25 05:06:10;;;;;;;24.88;11.23;;;22.20;69.30;;;;;;4972993;28;20061;-61
2021/04/25 05:08:38;;;;;;;19.88;15.32;;;22.20;69.70;;;;;;4972661;28;20501;-59
2021/04/25 05:11:05;;;;;;;13.02;10.48;;;22.20;69.60;;;;;;4972590;28;20544;-61
2021/04/25 05:13:33;;;;;;;15.27;10.10;;;22.20;69.80;;;;;;4966609;28;20023;-57
2021/04/25 05:16:01;;;;;;;25.45;7.90;;;22.20;69.90;;;;;;4971810;28;20504;-57
2021/04/25 05:18:28;;;;;;;12.02;6.93;;;22.30;71.00;;;;;;4954838;28;20067;-57
2021/04/25 05:20:56;;;;;;;15.80;9.13;;;22.30;70.70;;;;;;4954320;28;20434;-58
2021/04/25 05:23:24;;;;;;;10.57;6.35;;;22.30;70.10;;;;;;4967149;28;20077;-58
2021/04/25 05:25:51;;;;;;;10.30;5.53;;;22.30;70.30;;;;;;4971150;28;20027;-60
2021/04/25 05:28:18;;;;;;;9.88;4.20;;;22.30;71.20;;;;;;4972398;28;20022;-55
2021/04/25 05:30:46;;;;;;;15.02;4.28;;;22.30;70.40;;;;;;4970448;28;20027;-61
2021/04/25 05:33:13;;;;;;;14.35;4.07;;;22.30;71.10;;;;;;4966832;28;20085;-57
2021/04/25 05:35:41;;;;;;;8.35;3.17;;;22.30;72.80;;;;;;4970378;28;20501;-55
2021/04/25 05:38:12;;;;;;;10.23;3.22;;;22.30;72.30;;;;;;4971864;28;20034;-57
2021/04/25 05:40:39;;;;;;;16.15;3.22;;;22.30;73.30;;;;;;4972228;28;20027;-54
2021/04/25 05:43:07;;;;;;;10.90;2.75;;;22.30;73.20;;;;;;4966368;28;20120;-57
2021/04/25 05:45:35;;;;;;;7.07;2.17;;;22.30;72.50;;;;;;4955348;28;20023;-61
2021/04/25 05:48:02;;;;;;;13.43;2.22;;;22.30;72.50;;;;;;4972639;28;20043;-57
2021/04/25 05:50:30;;;;;;;7.15;1.83;;;22.30;74.30;;;;;;4971653;28;20051;-58
2021/04/25 05:52:59;;;;;;;10.80;2.38;;;22.30;72.80;;;;;;4965951;28;20049;-55
2021/04/25 05:55:26;;;;;;;6.63;2.20;;;22.40;73.50;;;;;;4971921;28;20026;-60
2021/04/25 05:57:54;;;;;;;6.95;1.83;;;22.50;73.50;;;;;;4955059;28;20033;-60
2021/04/25 06:00:28;;;;;;;6.25;1.98;;;22.70;72.70;;;;;;4953963;28;20102;-57
2021/04/25 06:02:55;;;;;;;23.02;2.83;;;22.80;72.40;;;;;;4966350;28;20143;-59
2021/04/25 06:05:23;;;;;;;38.90;3.70;;;22.80;72.40;;;;;;4972068;28;20023;-49
2021/04/25 06:07:51;;;;;;;12.10;2.58;;;23.00;72.80;;;;;;4972055;28;20035;-55
2021/04/25 06:10:23;;;;;;;22.60;1.77;;;22.90;72.20;;;;;;4971913;28;20492;-60
2021/04/25 06:12:52;;;;;;;19.00;1.92;;;22.90;71.60;;;;;;4965460;28;20027;-57
2021/04/25 06:15:22;;;;;;;38.22;3.25;;;22.90;70.50;;;;;;4971282;28;20114;-72
2021/04/25 06:17:50;;;;;;;16.48;1.75;;;22.80;71.30;;;;;;4972507;28;20486;-71
2021/04/25 06:20:20;;;;;;;7.50;1.65;;;22.70;72.00;;;;;;4973355;28;20061;-69
2021/04/25 06:22:48;;;;;;;17.15;1.92;;;22.50;71.90;;;;;;4966343;28;20430;-65
2021/04/25 06:25:17;;;;;;;12.57;1.65;;;22.60;71.70;;;;;;4972477;28;20090;-67
2021/04/25 06:27:45;;;;;;;7.07;1.77;;;22.50;71.20;;;;;;4974219;28;20034;-71
2021/04/25 06:30:14;;;;;;;9.82;1.83;;;22.50;70.80;;;;;;4974547;28;20049;-69
2021/04/25 06:32:43;;;;;;;9.93;1.42;;;22.50;70.10;;;;;;4970472;28;20026;-70
2021/04/25 06:35:13;;;;;;;7.45;1.45;;;22.50;70.20;;;;;;4975703;28;20034;-70
2021/04/25 06:37:41;;;;;;;3.65;1.50;;;22.50;69.30;;;;;;4976307;28;20031;-67
2021/04/25 06:40:11;;;;;;;16.98;1.50;;;22.40;69.90;;;;;;4975767;28;20027;-66
2021/04/25 06:42:39;;;;;;;4.28;1.05;;;22.30;69.90;;;;;;4969401;28;20100;-64
2021/04/25 06:45:16;;;;;;;8.43;1.70;;;22.30;70.30;;;;;;4976404;28;20532;-65
2021/04/25 06:47:44;;;;;;;7.40;1.55;;;22.20;70.50;;;;;;4959192;28;20026;-67
2021/04/25 06:50:13;;;;;;;9.55;1.30;;;22.10;70.50;;;;;;4973074;28;20047;-67
2021/04/25 06:52:43;;;;;;;6.25;1.30;;;22.00;71.30;;;;;;4969179;28;20034;-68
2021/04/25 06:55:15;;;;;;;7.43;1.75;;;21.90;70.90;;;;;;4975530;28;20045;-72
2021/04/25 06:57:44;;;;;;;6.20;1.48;;;21.90;71.30;;;;;;4958760;28;20164;-68
2021/04/25 07:00:14;;;;;;;6.15;1.17;;;21.80;71.60;;;;;;4975202;28;20030;-70
2021/04/25 07:02:41;;;;;;;4.13;1.30;;;21.70;71.80;;;;;;4969273;28;20124;-68
2021/04/25 07:05:10;;;;;;;12.50;1.23;;;21.70;72.10;;;;;;4975526;28;20045;-74
2021/04/25 07:07:37;;;;;;;3.50;1.23;;;21.60;72.30;;;;;;4975044;28;20035;-67
2021/04/25 07:10:07;;;;;;;5.53;1.65;;;21.50;72.80;;;;;;4975296;28;20031;-63
2021/04/25 07:12:35;;;;;;;6.88;1.58;;;21.50;72.90;;;;;;4968622;28;20105;-67
2021/04/25 07:15:03;;;;;;;4.82;1.13;;;21.50;72.90;;;;;;4975385;28;20387;-65
2021/04/25 07:17:31;;;;;;;2.50;0.95;;;21.40;72.90;;;;;;4975176;28;20025;-66
2021/04/25 07:19:58;;;;;;;4.10;1.27;;;21.40;73.50;;;;;;4974958;28;20022;-67
2021/04/25 07:22:26;;;;;;;2.45;1.00;;;21.40;73.20;;;;;;4969034;28;20051;-66
2021/04/25 07:24:54;;;;;;;2.72;0.80;;;21.30;73.10;;;;;;4975224;28;20057;-72
2021/04/25 07:27:22;;;;;;;5.15;1.42;;;21.30;73.30;;;;;;4975509;28;20037;-72
2021/04/25 07:29:49;;;;;;;6.97;1.40;;;21.30;73.30;;;;;;4976785;28;20019;-72
2021/04/25 07:32:17;;;;;;;5.70;1.70;;;21.20;73.30;;;;;;4969174;28;20118;-65
2021/04/25 07:34:46;;;;;;;13.15;1.38;;;21.20;73.50;;;;;;4973384;28;20030;-68
2021/04/25 07:37:14;;;;;;;10.63;1.50;;;21.20;73.50;;;;;;4973050;28;20049;-73
2021/04/25 07:39:42;;;;;;;4.00;1.20;;;21.10;73.30;;;;;;4975164;28;20054;-70
2021/04/25 07:42:11;;;;;;;6.53;1.20;;;21.10;73.80;;;;;;4970206;28;20426;-67
2021/04/25 07:44:41;;;;;;;3.40;1.17;;;21.10;73.80;;;;;;4974780;28;20035;-67
2021/04/25 07:47:09;;;;;;;4.15;1.10;;;21.10;73.80;;;;;;4976453;28;20054;-67
2021/04/25 07:49:37;;;;;;;1.65;0.80;;;21.00;73.70;;;;;;4975527;28;20051;-70
2021/04/25 07:52:05;;;;;;;2.55;1.00;;;21.00;73.70;;;;;;4972295;28;20031;-69
2021/04/25 07:54:33;;;;;;;3.90;1.30;;;21.00;73.70;;;;;;4975422;28;20034;-66
2021/04/25 07:57:01;;;;;;;3.72;1.02;;;20.90;73.70;;;;;;4975607;28;20030;-63
2021/04/25 07:59:28;;;;;;;3.15;1.10;;;20.90;73.70;;;;;;4975760;28;20117;-66
2021/04/25 08:01:56;;;;;;;5.28;1.23;;;20.90;73.60;;;;;;4972675;28;20441;-67
2021/04/25 08:04:23;;;;;;;4.47;1.10;;;20.80;73.60;;;;;;4953853;28;20046;-67
2021/04/25 08:06:51;;;;;;;4.25;1.35;;;20.90;73.80;;;;;;4975012;28;20501;-63
2021/04/25 08:09:18;;;;;;;1.38;0.82;;;20.80;74.10;;;;;;4972807;28;20050;-68
2021/04/25 08:11:46;;;;;;;5.10;1.25;;;20.80;74.00;;;;;;4973898;28;20113;-68
2021/04/25 08:14:16;;;;;;;4.10;1.35;;;20.80;74.00;;;;;;4970187;28;20026;-70
2021/04/25 08:16:44;;;;;;;4.78;1.40;;;20.80;74.00;;;;;;4975366;28;20027;-67
2021/04/25 08:19:11;;;;;;;7.03;1.40;;;20.80;74.00;;;;;;4975306;28;20038;-70
2021/04/25 08:21:39;;;;;;;2.85;1.17;;;20.70;74.00;;;;;;4975002;28;20516;-64
2021/04/25 08:24:07;;;;;;;6.32;1.02;;;20.70;74.20;;;;;;4969352;28;20033;-65
2021/04/25 08:26:34;;;;;;;3.53;1.30;;;20.70;74.30;;;;;;4973948;28;20034;-65
2021/04/25 08:29:03;;;;;;;5.30;1.10;;;20.70;74.40;;;;;;4955128;28;20030;-68
2021/04/25 08:31:30;;;;;;;4.28;1.42;;;20.70;74.30;;;;;;4972956;28;20023;-64
2021/04/25 08:33:58;;;;;;;4.18;1.30;;;20.70;74.30;;;;;;4967669;28;20121;-69
2021/04/25 08:36:25;;;;;;;2.15;1.13;;;20.60;74.30;;;;;;4972451;28;20038;-68
2021/04/25 08:38:53;;;;;;;5.43;1.38;;;20.60;74.40;;;;;;4973907;28;20478;-67
2021/04/25 08:41:22;;;;;;;2.95;1.20;;;20.60;74.30;;;;;;4974215;28;20035;-65
2021/04/25 08:43:51;;;;;;;4.63;1.88;;;20.60;74.50;;;;;;4968137;28;20030;-67
2021/04/25 08:46:24;;;;;;;2.47;1.13;;;20.60;74.40;;;;;;4973725;28;20133;-64
2021/04/25 08:48:52;;;;;;;1.77;0.93;;;20.50;74.40;;;;;;4973660;28;20460;-64
2021/04/25 08:51:21;;;;;;;4.43;1.45;;;20.50;74.50;;;;;;4956051;28;20113;-65
2021/04/25 08:53:50;;;;;;;4.40;1.30;;;20.50;74.60;;;;;;4951321;28;20364;-66
2021/04/25 08:56:19;;;;;;;2.63;1.48;;;20.50;74.60;;;;;;4973739;28;20489;-69
2021/04/25 08:58:48;;;;;;;3.65;1.23;;;20.50;74.60;;;;;;4971639;28;20100;-64
2021/04/25 09:01:16;;;;;;;3.08;1.35;;;20.50;74.70;;;;;;4973637;28;20098;-66
2021/04/25 09:03:43;;;;;;;2.50;1.13;;;20.40;74.60;;;;;;4968100;28;20030;-69
2021/04/25 09:06:12;;;;;;;5.28;1.83;;;20.40;74.50;;;;;;4972996;28;20042;-68
2021/04/25 09:08:58;;;;;;;3.80;1.52;;;20.40;74.50;;;;;;4973448;28;20034;-70
2021/04/25 09:11:27;;;;;;;6.10;1.88;;;20.40;74.80;;;;;;4972090;28;20429;-70
2021/04/25 09:14:13;;;;;;;4.95;1.95;;;20.30;74.90;;;;;;4969010;28;20086;-65
2021/04/25 09:16:54;;;;;;;5.82;1.30;;;20.30;74.90;;;;;;4972261;28;20035;-63
2021/04/25 09:19:23;;;;;;;4.85;1.75;;;20.30;74.70;;;;;;4972030;28;20027;-71
2021/04/25 09:22:04;;;;;;;3.60;1.58;;;20.30;74.70;;;;;;4971592;28;20039;-68
2021/04/25 09:24:34;;;;;;;2.70;1.50;;;20.30;74.70;;;;;;4968840;28;20034;-68
2021/04/25 09:27:02;;;;;;;3.25;1.55;;;20.30;74.70;;;;;;4973073;28;20118;-67
2021/04/25 09:29:48;;;;;;;1.88;1.38;;;20.30;74.60;;;;;;4973283;28;20033;-66
2021/04/25 09:32:23;;;;;;;3.20;1.48;;;20.30;74.50;;;;;;4966467;28;20533;-70
2021/04/25 09:34:55;;;;;;;3.72;1.58;;;20.30;74.50;;;;;;4954246;28;20087;-66
2021/04/25 09:37:22;;;;;;;3.72;1.85;;;20.30;74.40;;;;;;4955299;28;20031;-63
2021/04/25 09:40:08;;;;;;;4.95;1.55;;;20.30;74.40;;;;;;4973325;28;20085;-64
2021/04/25 09:43:07;;;;;;;5.22;1.38;;;20.20;74.40;;;;;;4964817;28;20046;-66
2021/04/25 09:45:43;;;;;;;3.08;1.73;;;20.20;74.30;;;;;;4973057;28;20050;-66
2021/04/25 09:48:30;;;;;;;3.15;1.50;;;20.20;74.30;;;;;;4973561;28;20033;-70
2021/04/25 09:51:16;;;;;;;3.15;1.55;;;20.20;74.40;;;;;;4971802;28;20112;-67
2021/04/25 09:53:59;;;;;;;5.95;1.67;;;20.20;74.30;;;;;;4966860;28;20027;-66
2021/04/25 09:56:35;;;;;;;4.40;1.70;;;20.20;74.20;;;;;;4973143;28;20050;-64
2021/04/25 09:59:05;;;;;;;3.25;1.77;;;20.20;74.20;;;;;;4972189;28;20066;-68
2021/04/25 10:01:35;;;;;;;7.03;2.35;;;20.10;74.10;;;;;;4973230;28;20037;-68
2021/04/25 10:04:05;;;;;;;3.30;1.48;;;20.10;74.10;;;;;;4971511;28;20051;-67
2021/04/25 10:06:51;;;;;;;4.57;1.88;;;20.10;74.20;;;;;;4976671;28;20065;-63
2021/04/25 10:09:20;;;;;;;3.63;1.67;;;20.10;74.10;;;;;;4974237;28;20030;-68
2021/04/25 10:11:53;;;;;;;3.90;2.25;;;20.10;74.10;;;;;;4972473;28;20448;-67
2021/04/25 10:14:21;;;;;;;5.45;2.13;;;20.00;74.20;;;;;;4974041;28;20444;-67
2021/04/25 10:16:49;;;;;;;3.85;1.70;;;20.00;74.10;;;;;;4973362;28;20035;-67
2021/04/25 10:19:16;;;;;;;4.07;1.38;;;20.00;74.20;;;;;;4976425;28;20033;-66
2021/04/25 10:21:46;;;;;;;2.72;1.52;;;20.00;74.30;;;;;;4976276;28;20065;-66
2021/04/25 10:24:18;;;;;;;3.17;1.60;;;19.90;74.30;;;;;;4973193;28;20091;-65
2021/04/25 10:27:12;;;;;;;3.00;1.80;;;19.90;74.30;;;;;;4975950;28;20023;-65
2021/04/25 10:30:00;;;;;;;2.90;1.75;;;19.90;74.00;;;;;;4976042;28;20414;-67
2021/04/25 10:32:28;;;;;;;3.85;1.92;;;19.90;74.10;;;;;;4971885;28;20022;-68
2021/04/25 10:35:19;;;;;;;3.10;1.60;;;19.90;74.10;;;;;;4976964;28;20041;-68
2021/04/25 10:37:49;;;;;;;3.22;1.90;;;19.90;74.00;;;;;;4973173;28;20109;-68
2021/04/25 10:40:32;;;;;;;5.45;2.15;;;19.90;74.10;;;;;;4972588;28;20035;-63
2021/04/25 10:43:02;;;;;;;3.00;1.30;;;19.90;74.00;;;;;;4967434;28;20508;-63
2021/04/25 10:45:34;;;;;;;3.42;2.03;;;19.90;73.90;;;;;;4976090;28;20612;-68
2021/04/25 10:48:29;;;;;;;4.47;2.10;;;19.90;73.90;;;;;;4975715;28;20039;-63
2021/04/25 10:51:03;;;;;;;6.72;1.92;;;19.90;73.90;;;;;;4955079;29;20126;-66
2021/04/25 10:53:34;;;;;;;6.45;2.55;;;19.90;73.90;;;;;;4950223;28;20069;-68
2021/04/25 10:56:13;;;;;;;4.38;1.95;;;19.80;73.80;;;;;;4957025;28;20015;-73
2021/04/25 10:58:41;;;;;;;3.13;2.38;;;19.80;73.90;;;;;;4956814;28;20051;-71
2021/04/25 11:01:41;;;;;;;5.50;2.30;;;19.80;73.90;;;;;;4956133;28;20027;-69
2021/04/25 11:04:08;;;;;;;4.22;1.90;;;19.80;74.00;;;;;;4948463;28;20085;-68
2021/04/25 11:06:36;;;;;;;4.20;2.10;;;19.80;73.90;;;;;;4955233;28;20034;-69
2021/04/25 11:09:04;;;;;;;8.18;2.00;;;19.80;73.90;;;;;;4955906;28;20027;-69
2021/04/25 11:11:41;;;;;;;6.38;2.58;;;19.80;74.00;;;;;;4955872;28;20490;-68
2021/04/25 11:14:09;;;;;;;3.47;2.22;;;19.70;74.00;;;;;;4949265;28;20074;-60
2021/04/25 11:16:37;;;;;;;5.18;2.38;;;19.70;73.80;;;;;;4956426;28;20506;-60
2021/04/25 11:19:12;;;;;;;5.07;2.25;;;19.70;73.90;;;;;;4954788;29;20035;-60
2021/04/25 11:21:54;;;;;;;6.60;2.20;;;19.70;74.00;;;;;;4954933;28;20050;-61
2021/04/25 11:24:28;;;;;;;6.38;2.15;;;19.70;73.90;;;;;;4953680;29;20467;-60
2021/04/25 11:27:00;;;;;;;4.05;2.03;;;19.70;73.90;;;;;;4957253;28;20569;-63
2021/04/25 11:29:40;;;;;;;3.72;2.05;;;19.70;73.80;;;;;;4957646;28;20040;-62
2021/04/25 11:32:08;;;;;;;5.05;2.10;;;19.70;73.70;;;;;;4952130;29;20102;-59
2021/04/25 11:34:35;;;;;;;7.70;2.80;;;19.60;73.60;;;;;;4954357;28;20037;-64
2021/04/25 11:37:28;;;;;;;6.15;2.00;;;19.60;73.60;;;;;;4955477;28;20067;-63
2021/04/25 11:40:02;;;;;;;3.90;2.53;;;19.60;73.60;;;;;;4954402;29;20122;-64
2021/04/25 11:42:49;;;;;;;4.32;2.20;;;19.60;73.70;;;;;;4951649;29;20049;-66
2021/04/25 11:45:26;;;;;;;4.25;2.42;;;19.60;73.60;;;;;;4957910;28;20031;-69
2021/04/25 11:48:08;;;;;;;5.57;2.65;;;19.60;73.60;;;;;;4956993;28;20031;-65
2021/04/25 11:50:37;;;;;;;4.85;2.40;;;19.60;73.60;;;;;;4970954;28;20038;-63
2021/04/25 11:53:05;;;;;;;5.38;2.95;;;19.60;73.70;;;;;;4951980;28;20035;-65
2021/04/25 11:55:33;;;;;;;5.43;3.08;;;19.60;73.70;;;;;;4975251;28;20025;-65
2021/04/25 11:58:00;;;;;;;5.25;2.55;;;19.60;73.60;;;;;;4975055;28;20034;-64
2021/04/25 12:00:30;;;;;;;4.57;2.50;;;19.60;73.60;;;;;;4975554;28;20489;-65
2021/04/25 12:02:58;;;;;;;4.45;2.25;;;19.60;73.80;;;;;;4969194;28;20454;-66
2021/04/25 12:05:34;;;;;;;3.40;2.10;;;19.50;73.60;;;;;;4973932;28;20022;-69
2021/04/25 12:08:06;;;;;;;4.45;2.20;;;19.50;73.50;;;;;;4972996;28;20039;-63
2021/04/25 12:10:38;;;;;;;4.20;2.10;;;19.50;73.50;;;;;;4955678;28;20037;-67
2021/04/25 12:13:15;;;;;;;4.00;2.55;;;19.50;73.40;;;;;;4966779;28;20038;-62
2021/04/25 12:16:01;;;;;;;3.97;2.35;;;19.50;73.40;;;;;;4972356;28;20255;-61
2021/04/25 12:18:37;;;;;;;5.65;2.35;;;19.50;73.30;;;;;;4972928;28;20459;-64
2021/04/25 12:21:05;;;;;;;5.70;1.98;;;19.50;73.30;;;;;;4972928;28;20030;-64
2021/04/25 12:23:38;;;;;;;5.25;2.30;;;19.50;73.20;;;;;;4966876;28;20442;-62
2021/04/25 12:26:15;;;;;;;4.60;2.40;;;19.50;73.40;;;;;;4972688;28;20023;-63
2021/04/25 12:28:48;;;;;;;5.90;2.83;;;19.40;73.40;;;;;;4972203;28;20046;-64
2021/04/25 12:31:27;;;;;;;5.13;2.40;;;19.40;73.30;;;;;;4972940;28;20027;-63
2021/04/25 12:33:57;;;;;;;3.88;2.22;;;19.40;73.40;;;;;;4967405;28;20118;-64
2021/04/25 12:36:30;;;;;;;4.25;2.80;;;19.40;73.60;;;;;;4972189;28;20034;-63
2021/04/25 12:39:06;;;;;;;4.35;2.45;;;19.40;73.60;;;;;;4972507;28;20094;-63
2021/04/25 12:41:45;;;;;;;5.25;2.63;;;19.30;73.80;;;;;;4973181;28;20125;-63
2021/04/25 12:44:18;;;;;;;3.88;2.50;;;19.30;74.50;;;;;;4968683;28;20058;-65
2021/04/25 12:47:00;;;;;;;5.93;2.92;;;19.30;74.10;;;;;;4972098;28;20047;-63
2021/04/25 12:49:38;;;;;;;4.43;2.03;;;19.30;74.20;;;;;;4972280;28;20134;-61
2021/04/25 12:52:07;;;;;;;5.18;2.55;;;19.30;74.50;;;;;;4952815;28;20840;-64
2021/04/25 12:54:46;;;;;;;4.40;2.97;;;19.20;74.40;;;;;;4967945;28;20041;-62
2021/04/25 12:57:14;;;;;;;8.82;2.88;;;19.20;74.70;;;;;;4972053;28;20579;-62
2021/04/25 12:59:42;;;;;;;6.82;2.85;;;19.20;74.90;;;;;;4973530;28;20062;-67
2021/04/25 13:02:15;;;;;;;8.15;2.97;;;19.20;74.90;;;;;;4974554;28;20381;-66